sensor_id;sensor_type;location;lat;lon;timestamp;P1;durP1;ratioP1;P2;durP2;ratioP2
60257;SDS011;46115;44.484;11.314;2022-11-02T00:03:47;9.30;;;5.05;;
60257;SDS011;46115;44.484;11.314;2022-11-02T00:08:09;10.60;;;5.30;;
60257;SDS011;46115;44.484;11.314;2022-11-02T00:12:32;9.75;;;5.15;;
60257;SDS011;46115;44.484;11.314;2022-11-02T00:16:56;13.27;;;6.18;;
60257;SDS011;46115;44.484;11.314;2022-11-02T00:21:19;11.38;;;6.20;;
60257;SDS011;46115;44.484;11.314;2022-11-02T00:25:43;11.73;;;6.95;;
60257;SDS011;46115;44.484;11.314;2022-11-02T00:30:09;12.45;;;7.30;;
60257;SDS011;46115;44.484;11.314;2022-11-02T00:34:33;12.10;;;6.97;;
60257;SDS011;46115;44.484;11.314;2022-11-02T00:38:56;13.27;;;7.20;;
60257;SDS011;46115;44.484;11.314;2022-11-02T00:43:18;15.27;;;7.78;;
60257;SDS011;46115;44.484;11.314;2022-11-02T00:47:41;11.38;;;6.80;;
60257;SDS011;46115;44.484;11.314;2022-11-02T00:52:05;13.93;;;7.88;;
60257;SDS011;46115;44.484;11.314;2022-11-02T00:56:28;15.35;;;7.68;;
60257;SDS011;46115;44.484;11.314;2022-11-02T01:00:51;15.15;;;9.48;;
60257;SDS011;46115;44.484;11.314;2022-11-02T01:05:16;15.00;;;8.05;;
60257;SDS011;46115;44.484;11.314;2022-11-02T01:09:43;17.45;;;8.38;;
60257;SDS011;46115;44.484;11.314;2022-11-02T01:14:06;15.07;;;9.38;;
60257;SDS011;46115;44.484;11.314;2022-11-02T01:18:29;14.32;;;7.70;;
60257;SDS011;46115;44.484;11.314;2022-11-02T01:22:51;13.13;;;7.60;;
60257;SDS011;46115;44.484;11.314;2022-11-02T01:27:15;19.08;;;9.05;;
60257;SDS011;46115;44.484;11.314;2022-11-02T01:31:39;13.68;;;7.82;;
60257;SDS011;46115;44.484;11.314;2022-11-02T01:36:02;17.45;;;9.05;;
60257;SDS011;46115;44.484;11.314;2022-11-02T01:40:25;14.80;;;8.02;;
60257;SDS011;46115;44.484;11.314;2022-11-02T01:44:49;13.85;;;9.20;;
60257;SDS011;46115;44.484;11.314;2022-11-02T01:49:13;13.82;;;9.27;;
60257;SDS011;46115;44.484;11.314;2022-11-02T01:53:40;19.63;;;10.23;;
60257;SDS011;46115;44.484;11.314;2022-11-02T01:58:06;17.48;;;9.95;;
60257;SDS011;46115;44.484;11.314;2022-11-02T02:02:33;19.88;;;12.60;;
60257;SDS011;46115;44.484;11.314;2022-11-02T02:06:59;17.08;;;11.48;;
60257;SDS011;46115;44.484;11.314;2022-11-02T02:11:23;17.85;;;11.20;;
60257;SDS011;46115;44.484;11.314;2022-11-02T02:15:49;20.20;;;13.25;;
60257;SDS011;46115;44.484;11.314;2022-11-02T02:20:27;17.60;;;10.38;;
60257;SDS011;46115;44.484;11.314;2022-11-02T02:25:07;19.20;;;11.85;;
60257;SDS011;46115;44.484;11.314;2022-11-02T02:29:48;22.40;;;11.20;;
60257;SDS011;46115;44.484;11.314;2022-11-02T02:34:15;23.10;;;13.63;;
60257;SDS011;46115;44.484;11.314;2022-11-02T02:38:41;22.63;;;12.20;;
60257;SDS011;46115;44.484;11.314;2022-11-02T02:43:08;20.15;;;12.55;;
60257;SDS011;46115;44.484;11.314;2022-11-02T02:47:35;21.52;;;11.45;;
60257;SDS011;46115;44.484;11.314;2022-11-02T02:52:04;19.48;;;11.35;;
60257;SDS011;46115;44.484;11.314;2022-11-02T02:56:29;17.30;;;10.32;;
60257;SDS011;46115;44.484;11.314;2022-11-02T03:00:57;15.35;;;9.88;;
60257;SDS011;46115;44.484;11.314;2022-11-02T03:05:25;14.85;;;9.13;;
60257;SDS011;46115;44.484;11.314;2022-11-02T03:09:53;15.07;;;8.35;;
60257;SDS011;46115;44.484;11.314;2022-11-02T03:14:27;18.63;;;12.13;;
60257;SDS011;46115;44.484;11.314;2022-11-02T03:19:00;18.45;;;10.63;;
60257;SDS011;46115;44.484;11.314;2022-11-02T03:23:33;19.35;;;10.18;;
60257;SDS011;46115;44.484;11.314;2022-11-02T03:28:01;16.52;;;9.60;;
60257;SDS011;46115;44.484;11.314;2022-11-02T03:32:35;17.58;;;10.18;;
60257;SDS011;46115;44.484;11.314;2022-11-02T03:37:04;14.50;;;9.93;;
60257;SDS011;46115;44.484;11.314;2022-11-02T03:41:34;16.17;;;10.98;;
60257;SDS011;46115;44.484;11.314;2022-11-02T03:46:01;16.20;;;9.00;;
60257;SDS011;46115;44.484;11.314;2022-11-02T03:50:27;16.50;;;9.98;;
60257;SDS011;46115;44.484;11.314;2022-11-02T03:54:52;14.60;;;9.32;;
60257;SDS011;46115;44.484;11.314;2022-11-02T03:59:20;13.65;;;9.10;;
60257;SDS011;46115;44.484;11.314;2022-11-02T04:03:43;16.35;;;9.18;;
60257;SDS011;46115;44.484;11.314;2022-11-02T04:08:08;11.73;;;8.80;;
60257;SDS011;46115;44.484;11.314;2022-11-02T04:12:49;14.32;;;8.75;;
60257;SDS011;46115;44.484;11.314;2022-11-02T04:17:31;16.38;;;8.68;;
60257;SDS011;46115;44.484;11.314;2022-11-02T04:22:12;14.82;;;9.15;;
60257;SDS011;46115;44.484;11.314;2022-11-02T04:26:59;15.07;;;8.85;;
60257;SDS011;46115;44.484;11.314;2022-11-02T04:31:22;12.73;;;8.63;;
60257;SDS011;46115;44.484;11.314;2022-11-02T04:35:46;15.32;;;8.52;;
60257;SDS011;46115;44.484;11.314;2022-11-02T04:40:10;17.27;;;8.57;;
60257;SDS011;46115;44.484;11.314;2022-11-02T04:44:33;14.88;;;9.18;;
60257;SDS011;46115;44.484;11.314;2022-11-02T04:49:00;15.00;;;9.00;;
60257;SDS011;46115;44.484;11.314;2022-11-02T04:53:27;12.98;;;9.23;;
60257;SDS011;46115;44.484;11.314;2022-11-02T04:57:50;12.52;;;8.38;;
60257;SDS011;46115;44.484;11.314;2022-11-02T05:02:14;12.82;;;8.90;;
60257;SDS011;46115;44.484;11.314;2022-11-02T05:06:38;14.63;;;8.55;;
60257;SDS011;46115;44.484;11.314;2022-11-02T05:11:03;14.77;;;8.40;;
60257;SDS011;46115;44.484;11.314;2022-11-02T05:15:27;14.52;;;7.47;;
60257;SDS011;46115;44.484;11.314;2022-11-02T05:19:50;11.00;;;7.78;;
60257;SDS011;46115;44.484;11.314;2022-11-02T05:24:14;12.15;;;7.18;;
60257;SDS011;46115;44.484;11.314;2022-11-02T05:28:39;13.68;;;8.18;;
60257;SDS011;46115;44.484;11.314;2022-11-02T05:33:01;15.52;;;8.18;;
60257;SDS011;46115;44.484;11.314;2022-11-02T05:37:24;12.68;;;8.20;;
60257;SDS011;46115;44.484;11.314;2022-11-02T05:41:47;14.73;;;8.68;;
60257;SDS011;46115;44.484;11.314;2022-11-02T05:46:12;16.67;;;7.97;;
60257;SDS011;46115;44.484;11.314;2022-11-02T05:50:35;14.07;;;8.13;;
60257;SDS011;46115;44.484;11.314;2022-11-02T05:54:58;12.88;;;7.95;;
60257;SDS011;46115;44.484;11.314;2022-11-02T05:59:21;11.90;;;7.78;;
60257;SDS011;46115;44.484;11.314;2022-11-02T06:03:45;15.35;;;7.40;;
60257;SDS011;46115;44.484;11.314;2022-11-02T06:08:07;14.93;;;8.07;;
60257;SDS011;46115;44.484;11.314;2022-11-02T06:12:30;13.65;;;7.72;;
60257;SDS011;46115;44.484;11.314;2022-11-02T06:16:53;13.93;;;7.22;;
60257;SDS011;46115;44.484;11.314;2022-11-02T06:21:17;15.57;;;7.30;;
60257;SDS011;46115;44.484;11.314;2022-11-02T06:25:40;12.65;;;7.13;;
60257;SDS011;46115;44.484;11.314;2022-11-02T06:30:03;13.00;;;7.03;;
60257;SDS011;46115;44.484;11.314;2022-11-02T06:34:26;14.60;;;7.68;;
60257;SDS011;46115;44.484;11.314;2022-11-02T06:38:50;9.35;;;7.32;;
60257;SDS011;46115;44.484;11.314;2022-11-02T06:43:13;13.25;;;7.03;;
60257;SDS011;46115;44.484;11.314;2022-11-02T06:47:36;16.13;;;6.72;;
60257;SDS011;46115;44.484;11.314;2022-11-02T06:51:59;11.65;;;7.13;;
60257;SDS011;46115;44.484;11.314;2022-11-02T06:56:23;11.30;;;6.68;;
60257;SDS011;46115;44.484;11.314;2022-11-02T07:00:45;10.95;;;6.40;;
60257;SDS011;46115;44.484;11.314;2022-11-02T07:05:08;11.10;;;6.38;;
60257;SDS011;46115;44.484;11.314;2022-11-02T07:09:31;8.93;;;5.70;;
60257;SDS011;46115;44.484;11.314;2022-11-02T07:13:55;9.93;;;5.60;;
60257;SDS011;46115;44.484;11.314;2022-11-02T07:18:18;12.82;;;6.22;;
60257;SDS011;46115;44.484;11.314;2022-11-02T07:22:40;10.50;;;5.03;;
60257;SDS011;46115;44.484;11.314;2022-11-02T07:27:03;10.43;;;5.30;;
60257;SDS011;46115;44.484;11.314;2022-11-02T07:31:27;10.07;;;5.15;;
60257;SDS011;46115;44.484;11.314;2022-11-02T07:35:52;11.82;;;4.60;;
60257;SDS011;46115;44.484;11.314;2022-11-02T07:40:15;8.48;;;5.00;;
60257;SDS011;46115;44.484;11.314;2022-11-02T07:44:40;12.05;;;4.85;;
60257;SDS011;46115;44.484;11.314;2022-11-02T07:49:06;8.65;;;4.90;;
60257;SDS011;46115;44.484;11.314;2022-11-02T07:53:28;9.25;;;4.97;;
60257;SDS011;46115;44.484;11.314;2022-11-02T07:57:51;10.70;;;4.90;;
60257;SDS011;46115;44.484;11.314;2022-11-02T08:02:15;6.97;;;4.68;;
60257;SDS011;46115;44.484;11.314;2022-11-02T08:06:39;8.52;;;4.40;;
60257;SDS011;46115;44.484;11.314;2022-11-02T08:11:03;12.35;;;4.50;;
60257;SDS011;46115;44.484;11.314;2022-11-02T08:15:27;8.40;;;4.60;;
60257;SDS011;46115;44.484;11.314;2022-11-02T08:19:50;10.07;;;4.38;;
60257;SDS011;46115;44.484;11.314;2022-11-02T08:24:14;10.07;;;4.78;;
60257;SDS011;46115;44.484;11.314;2022-11-02T08:28:37;8.18;;;4.10;;
60257;SDS011;46115;44.484;11.314;2022-11-02T08:33:01;9.95;;;4.57;;
60257;SDS011;46115;44.484;11.314;2022-11-02T08:37:25;10.60;;;5.18;;
60257;SDS011;46115;44.484;11.314;2022-11-02T08:41:49;9.07;;;5.05;;
60257;SDS011;46115;44.484;11.314;2022-11-02T08:46:12;12.55;;;8.10;;
60257;SDS011;46115;44.484;11.314;2022-11-02T08:50:35;16.23;;;10.73;;
60257;SDS011;46115;44.484;11.314;2022-11-02T08:54:58;15.80;;;13.05;;
60257;SDS011;46115;44.484;11.314;2022-11-02T08:59:22;19.52;;;13.55;;
60257;SDS011;46115;44.484;11.314;2022-11-02T09:03:45;17.73;;;13.23;;
60257;SDS011;46115;44.484;11.314;2022-11-02T09:08:08;22.90;;;16.30;;
60257;SDS011;46115;44.484;11.314;2022-11-02T09:12:33;20.42;;;16.98;;
60257;SDS011;46115;44.484;11.314;2022-11-02T09:16:57;20.40;;;14.88;;
60257;SDS011;46115;44.484;11.314;2022-11-02T09:21:20;21.40;;;14.15;;
60257;SDS011;46115;44.484;11.314;2022-11-02T09:25:42;21.85;;;14.65;;
60257;SDS011;46115;44.484;11.314;2022-11-02T09:30:06;29.20;;;14.57;;
60257;SDS011;46115;44.484;11.314;2022-11-02T09:34:30;24.98;;;15.98;;
60257;SDS011;46115;44.484;11.314;2022-11-02T09:38:53;22.60;;;15.20;;
60257;SDS011;46115;44.484;11.314;2022-11-02T09:43:18;20.58;;;13.27;;
60257;SDS011;46115;44.484;11.314;2022-11-02T09:47:53;23.95;;;13.68;;
60257;SDS011;46115;44.484;11.314;2022-11-02T09:52:23;22.40;;;14.40;;
60257;SDS011;46115;44.484;11.314;2022-11-02T09:56:51;24.73;;;16.23;;
60257;SDS011;46115;44.484;11.314;2022-11-02T10:01:25;24.08;;;15.35;;
60257;SDS011;46115;44.484;11.314;2022-11-02T10:06:04;24.55;;;15.48;;
60257;SDS011;46115;44.484;11.314;2022-11-02T10:10:35;22.33;;;14.48;;
60257;SDS011;46115;44.484;11.314;2022-11-02T10:15:03;23.10;;;15.18;;
60257;SDS011;46115;44.484;11.314;2022-11-02T10:19:37;24.27;;;15.18;;
60257;SDS011;46115;44.484;11.314;2022-11-02T10:24:02;25.92;;;15.57;;
60257;SDS011;46115;44.484;11.314;2022-11-02T10:28:44;18.95;;;14.05;;
60257;SDS011;46115;44.484;11.314;2022-11-02T10:33:10;18.95;;;13.57;;
60257;SDS011;46115;44.484;11.314;2022-11-02T10:37:38;22.30;;;15.38;;
60257;SDS011;46115;44.484;11.314;2022-11-02T10:42:16;23.92;;;15.98;;
60257;SDS011;46115;44.484;11.314;2022-11-02T10:47:16;23.93;;;15.93;;
60257;SDS011;46115;44.484;11.314;2022-11-02T10:51:40;27.88;;;14.25;;
60257;SDS011;46115;44.484;11.314;2022-11-02T10:56:05;23.00;;;15.13;;
60257;SDS011;46115;44.484;11.314;2022-11-02T11:00:34;27.20;;;13.63;;
60257;SDS011;46115;44.484;11.314;2022-11-02T11:05:00;19.92;;;12.77;;
60257;SDS011;46115;44.484;11.314;2022-11-02T11:09:35;20.95;;;13.40;;
60257;SDS011;46115;44.484;11.314;2022-11-02T11:14:01;23.23;;;14.70;;
60257;SDS011;46115;44.484;11.314;2022-11-02T11:18:26;20.83;;;13.82;;
60257;SDS011;46115;44.484;11.314;2022-11-02T11:23:05;21.55;;;12.70;;
60257;SDS011;46115;44.484;11.314;2022-11-02T11:27:30;24.60;;;14.27;;
60257;SDS011;46115;44.484;11.314;2022-11-02T11:32:11;25.92;;;13.82;;
60257;SDS011;46115;44.484;11.314;2022-11-02T11:36:36;21.45;;;13.82;;
60257;SDS011;46115;44.484;11.314;2022-11-02T11:41:00;24.38;;;14.63;;
60257;SDS011;46115;44.484;11.314;2022-11-02T11:45:25;23.63;;;13.43;;
60257;SDS011;46115;44.484;11.314;2022-11-02T11:49:48;19.98;;;13.35;;
60257;SDS011;46115;44.484;11.314;2022-11-02T11:54:19;22.38;;;12.93;;
60257;SDS011;46115;44.484;11.314;2022-11-02T11:58:50;19.73;;;12.20;;
60257;SDS011;46115;44.484;11.314;2022-11-02T12:03:13;19.70;;;12.48;;
60257;SDS011;46115;44.484;11.314;2022-11-02T12:12:31;16.50;;;11.30;;
60257;SDS011;46115;44.484;11.314;2022-11-02T12:17:15;18.80;;;11.50;;
60257;SDS011;46115;44.484;11.314;2022-11-02T12:21:53;20.08;;;10.98;;
60257;SDS011;46115;44.484;11.314;2022-11-02T12:26:28;24.55;;;12.75;;
60257;SDS011;46115;44.484;11.314;2022-11-02T12:31:00;18.92;;;12.63;;
60257;SDS011;46115;44.484;11.314;2022-11-02T12:40:26;20.25;;;12.98;;
60257;SDS011;46115;44.484;11.314;2022-11-02T12:45:00;22.27;;;16.85;;
60257;SDS011;46115;44.484;11.314;2022-11-02T12:49:33;25.38;;;18.92;;
60257;SDS011;46115;44.484;11.314;2022-11-02T12:54:03;25.10;;;18.42;;
60257;SDS011;46115;44.484;11.314;2022-11-02T12:58:32;26.48;;;17.77;;
60257;SDS011;46115;44.484;11.314;2022-11-02T13:02:58;23.38;;;17.02;;
60257;SDS011;46115;44.484;11.314;2022-11-02T13:07:28;23.38;;;15.30;;
60257;SDS011;46115;44.484;11.314;2022-11-02T13:11:58;30.38;;;17.65;;
60257;SDS011;46115;44.484;11.314;2022-11-02T13:16:24;30.13;;;17.58;;
60257;SDS011;46115;44.484;11.314;2022-11-02T13:20:54;24.88;;;17.80;;
60257;SDS011;46115;44.484;11.314;2022-11-02T13:25:21;30.65;;;18.33;;
60257;SDS011;46115;44.484;11.314;2022-11-02T13:29:50;24.17;;;17.42;;
60257;SDS011;46115;44.484;11.314;2022-11-02T13:34:17;28.02;;;17.10;;
60257;SDS011;46115;44.484;11.314;2022-11-02T13:43:27;26.50;;;18.42;;
60257;SDS011;46115;44.484;11.314;2022-11-02T13:48:24;27.27;;;17.33;;
60257;SDS011;46115;44.484;11.314;2022-11-02T13:53:00;23.13;;;17.13;;
60257;SDS011;46115;44.484;11.314;2022-11-02T13:57:31;25.08;;;17.77;;
60257;SDS011;46115;44.484;11.314;2022-11-02T14:01:56;29.13;;;17.27;;
60257;SDS011;46115;44.484;11.314;2022-11-02T14:06:23;28.55;;;18.00;;
60257;SDS011;46115;44.484;11.314;2022-11-02T14:11:00;24.58;;;16.50;;
60257;SDS011;46115;44.484;11.314;2022-11-02T14:25:04;24.25;;;17.58;;
60257;SDS011;46115;44.484;11.314;2022-11-02T14:29:35;23.23;;;18.30;;
60257;SDS011;46115;44.484;11.314;2022-11-02T14:34:02;27.35;;;17.98;;
60257;SDS011;46115;44.484;11.314;2022-11-02T14:38:42;26.70;;;17.90;;
60257;SDS011;46115;44.484;11.314;2022-11-02T14:48:10;28.30;;;19.38;;
60257;SDS011;46115;44.484;11.314;2022-11-02T14:52:36;28.52;;;19.20;;
60257;SDS011;46115;44.484;11.314;2022-11-02T14:57:00;32.88;;;21.98;;
60257;SDS011;46115;44.484;11.314;2022-11-02T15:01:27;29.88;;;18.20;;
60257;SDS011;46115;44.484;11.314;2022-11-02T15:05:56;26.95;;;17.85;;
60257;SDS011;46115;44.484;11.314;2022-11-02T15:10:34;27.25;;;16.88;;
60257;SDS011;46115;44.484;11.314;2022-11-02T15:15:04;25.70;;;17.17;;
60257;SDS011;46115;44.484;11.314;2022-11-02T15:19:49;25.67;;;17.40;;
60257;SDS011;46115;44.484;11.314;2022-11-02T15:24:14;28.90;;;17.77;;
60257;SDS011;46115;44.484;11.314;2022-11-02T15:28:41;27.63;;;16.50;;
60257;SDS011;46115;44.484;11.314;2022-11-02T15:33:05;32.95;;;17.30;;
60257;SDS011;46115;44.484;11.314;2022-11-02T15:37:30;28.48;;;16.83;;
60257;SDS011;46115;44.484;11.314;2022-11-02T15:41:55;25.05;;;16.30;;
60257;SDS011;46115;44.484;11.314;2022-11-02T15:46:27;23.23;;;15.93;;
60257;SDS011;46115;44.484;11.314;2022-11-02T15:51:06;23.83;;;16.42;;
60257;SDS011;46115;44.484;11.314;2022-11-02T15:55:37;30.13;;;17.90;;
60257;SDS011;46115;44.484;11.314;2022-11-02T16:00:13;31.30;;;17.55;;
60257;SDS011;46115;44.484;11.314;2022-11-02T16:04:41;26.85;;;17.55;;
60257;SDS011;46115;44.484;11.314;2022-11-02T16:14:05;29.45;;;17.55;;
60257;SDS011;46115;44.484;11.314;2022-11-02T16:18:37;34.97;;;17.63;;
60257;SDS011;46115;44.484;11.314;2022-11-02T16:23:01;27.00;;;17.35;;
60257;SDS011;46115;44.484;11.314;2022-11-02T16:27:26;29.48;;;18.42;;
60257;SDS011;46115;44.484;11.314;2022-11-02T23:06:09;42.88;;;24.95;;
60257;SDS011;46115;44.484;11.314;2022-11-02T23:10:34;47.17;;;25.58;;
60257;SDS011;46115;44.484;11.314;2022-11-02T23:15:14;44.47;;;23.05;;
60257;SDS011;46115;44.484;11.314;2022-11-02T23:19:37;41.38;;;23.42;;
60257;SDS011;46115;44.484;11.314;2022-11-02T23:24:01;41.35;;;23.95;;
60257;SDS011;46115;44.484;11.314;2022-11-02T23:28:42;42.80;;;24.50;;
60257;SDS011;46115;44.484;11.314;2022-11-02T23:33:23;36.88;;;22.63;;
60257;SDS011;46115;44.484;11.314;2022-11-02T23:37:58;37.25;;;23.90;;
60257;SDS011;46115;44.484;11.314;2022-11-02T23:42:24;38.63;;;21.70;;
60257;SDS011;46115;44.484;11.314;2022-11-02T23:46:46;36.65;;;22.50;;
60257;SDS011;46115;44.484;11.314;2022-11-02T23:51:09;35.30;;;22.73;;
60257;SDS011;46115;44.484;11.314;2022-11-02T23:55:51;37.05;;;20.73;;
